createdAt,value
2018-03-03T00:01:57.790Z,-0.80
2018-03-03T00:04:24.387Z,-0.90
2018-03-03T00:09:51.222Z,-0.90
2018-03-03T00:12:17.511Z,-0.80
2018-03-03T00:14:43.814Z,-0.80
2018-03-03T00:17:10.110Z,-0.80
2018-03-03T00:19:36.383Z,-0.70
2018-03-03T00:22:02.668Z,-0.60
2018-03-03T00:24:29.022Z,-0.50
2018-03-03T00:26:55.331Z,-0.50
2018-03-03T00:29:21.590Z,-0.50
2018-03-03T00:31:47.891Z,-0.60
2018-03-03T00:34:14.182Z,-0.50
2018-03-03T00:36:40.482Z,-0.60
2018-03-03T00:39:06.758Z,-0.50
2018-03-03T00:41:33.802Z,-0.50
2018-03-03T00:44:00.823Z,-0.50
2018-03-03T00:46:27.346Z,-0.60
2018-03-03T00:48:53.622Z,-0.60
2018-03-03T00:51:20.642Z,-0.60
2018-03-03T00:53:46.938Z,-0.60
2018-03-03T00:56:13.262Z,-0.70
2018-03-03T00:58:39.578Z,-0.70
2018-03-03T01:01:05.846Z,-0.70
2018-03-03T01:03:32.131Z,-0.80
2018-03-03T01:05:58.413Z,-0.70
2018-03-03T01:08:25.734Z,-0.60
2018-03-03T01:10:52.052Z,-0.70
2018-03-03T01:13:18.322Z,-0.70
2018-03-03T01:15:44.598Z,-0.70
2018-03-03T01:18:11.619Z,-0.60
2018-03-03T01:20:37.922Z,-0.60
2018-03-03T01:23:05.235Z,-0.70
2018-03-03T01:25:31.550Z,-0.80
2018-03-03T01:27:58.570Z,-0.70
2018-03-03T01:30:25.295Z,-0.70
2018-03-03T01:32:51.567Z,-0.60
2018-03-03T01:35:19.747Z,-0.70
2018-03-03T01:37:46.183Z,-0.70
2018-03-03T01:40:12.563Z,-0.70
2018-03-03T01:42:38.923Z,-0.90
2018-03-03T01:45:06.043Z,-1.00
2018-03-03T01:47:32.416Z,-1.10
2018-03-03T01:49:58.882Z,-1.20
2018-03-03T01:52:26.243Z,-1.10
2018-03-03T01:54:52.646Z,-1.20
2018-03-03T01:57:19.009Z,-1.20
2018-03-03T01:59:45.542Z,-1.30
2018-03-03T02:02:11.927Z,-1.30
2018-03-03T02:04:39.056Z,-1.40
2018-03-03T02:07:05.560Z,-1.40
2018-03-03T02:09:31.933Z,-1.50
2018-03-03T02:11:59.111Z,-1.60
2018-03-03T02:14:25.507Z,-1.60
2018-03-03T02:16:51.911Z,-1.60
2018-03-03T02:19:18.340Z,-1.70
2018-03-03T02:21:44.707Z,-1.70
2018-03-03T02:24:11.079Z,-1.80
2018-03-03T02:26:37.507Z,-1.80
2018-03-03T02:29:03.866Z,-1.80
2018-03-03T02:31:30.298Z,-1.80
2018-03-03T02:33:56.729Z,-1.90
2018-03-03T02:36:23.141Z,-1.90
2018-03-03T02:38:50.127Z,-1.90
2018-03-03T02:41:16.516Z,-2.00
2018-03-03T02:43:42.876Z,-2.00
2018-03-03T02:46:09.290Z,-2.00
2018-03-03T02:48:35.656Z,-2.00
2018-03-03T02:51:02.073Z,-2.20
2018-03-03T02:53:28.451Z,-2.40
2018-03-03T02:55:55.571Z,-2.40
2018-03-03T02:58:22.548Z,-2.40
2018-03-03T03:00:49.687Z,-2.40
2018-03-03T03:03:16.832Z,-2.40
2018-03-03T03:05:43.234Z,-2.40
2018-03-03T03:08:09.638Z,-2.40
2018-03-03T03:10:35.995Z,-2.40
2018-03-03T03:13:02.368Z,-2.50
2018-03-03T03:15:29.507Z,-2.50
2018-03-03T03:17:56.815Z,-2.50
2018-03-03T03:20:23.234Z,-2.50
2018-03-03T03:22:49.594Z,-2.50
2018-03-03T03:25:15.958Z,-2.60
2018-03-03T03:27:42.363Z,-2.70
2018-03-03T03:30:08.755Z,-2.80
2018-03-03T03:32:35.163Z,-2.90
2018-03-03T03:35:01.632Z,-2.90
2018-03-03T03:37:29.618Z,-3.00
2018-03-03T03:39:55.996Z,-3.00
2018-03-03T03:42:22.375Z,-3.00
2018-03-03T03:44:48.755Z,-2.90
2018-03-03T03:47:15.149Z,-3.00
2018-03-03T03:49:41.532Z,-2.90
2018-03-03T03:52:08.651Z,-2.90
2018-03-03T03:54:35.489Z,-3.00
2018-03-03T03:57:02.484Z,-2.90
2018-03-03T03:59:28.872Z,-2.90
2018-03-03T04:01:55.250Z,-2.90
2018-03-03T04:04:22.355Z,-2.90
2018-03-03T04:06:48.711Z,-3.00
2018-03-03T04:09:15.807Z,-3.00
2018-03-03T04:11:43.273Z,-3.00
2018-03-03T04:14:09.707Z,-3.00
2018-03-03T04:16:36.765Z,-3.00
2018-03-03T04:19:03.123Z,-3.00
2018-03-03T04:21:29.682Z,-3.00
2018-03-03T04:23:56.803Z,-2.90
2018-03-03T04:26:23.203Z,-2.90
2018-03-03T04:28:49.619Z,-2.90
2018-03-03T04:31:16.026Z,-3.00
2018-03-03T04:33:43.464Z,-2.90
2018-03-03T04:36:10.488Z,-2.90
2018-03-03T04:38:36.874Z,-3.00
2018-03-03T04:41:03.261Z,-2.90
2018-03-03T04:43:30.666Z,-3.00
2018-03-03T04:45:57.071Z,-2.90
2018-03-03T04:48:24.236Z,-2.90
2018-03-03T04:50:51.553Z,-2.90
2018-03-03T04:53:17.962Z,-2.90
2018-03-03T04:55:44.350Z,-2.90
2018-03-03T04:58:11.518Z,-2.80
2018-03-03T05:00:43.855Z,-2.90
2018-03-03T05:03:16.291Z,-2.80
2018-03-03T05:08:39.784Z,-2.80
2018-03-03T05:11:07.190Z,-2.80
2018-03-03T05:13:34.339Z,-2.80
2018-03-03T05:16:07.527Z,-2.80
2018-03-03T05:18:54.467Z,-2.80
2018-03-03T05:21:24.916Z,-2.80
2018-03-03T05:23:58.412Z,-2.80
2018-03-03T05:26:31.067Z,-2.70
2018-03-03T05:29:03.660Z,-2.70
2018-03-03T05:31:36.248Z,-2.70
2018-03-03T05:37:05.748Z,-2.60
2018-03-03T05:39:38.165Z,-2.60
2018-03-03T05:42:10.578Z,-2.60
2018-03-03T05:44:57.992Z,-2.60
2018-03-03T05:47:29.043Z,-2.70
2018-03-03T05:50:11.100Z,-2.70
2018-03-03T05:52:41.370Z,-2.80
2018-03-03T05:55:13.788Z,-2.70
2018-03-03T05:57:43.266Z,-2.70
2018-03-03T06:00:28.490Z,-2.60
2018-03-03T06:03:01.114Z,-2.60
2018-03-03T06:05:29.616Z,-2.50
2018-03-03T06:07:57.794Z,-2.40
2018-03-03T06:10:25.188Z,-2.30
2018-03-03T06:12:51.566Z,-2.20
2018-03-03T06:15:17.999Z,-2.20
2018-03-03T06:17:44.412Z,-2.20
2018-03-03T06:20:10.786Z,-2.20
2018-03-03T06:22:37.165Z,-2.20
2018-03-03T06:25:04.258Z,-2.20
2018-03-03T06:27:30.618Z,-2.20
2018-03-03T06:29:57.023Z,-2.10
2018-03-03T06:32:23.618Z,-2.00
2018-03-03T06:34:50.767Z,-2.00
2018-03-03T06:37:17.879Z,-1.90
2018-03-03T06:39:44.254Z,-1.90
2018-03-03T06:42:10.658Z,-1.80
2018-03-03T06:44:37.056Z,-1.70
2018-03-03T06:47:03.451Z,-1.60
2018-03-03T06:49:31.774Z,-1.20
2018-03-03T06:51:58.128Z,-1.20
2018-03-03T06:54:24.622Z,-0.90
2018-03-03T06:56:52.004Z,-0.60
2018-03-03T06:59:18.442Z,-0.40
2018-03-03T07:01:44.806Z,-0.20
2018-03-03T07:04:12.009Z,0.30
2018-03-03T07:06:39.056Z,0.30
2018-03-03T07:09:05.475Z,0.60
2018-03-03T07:11:31.860Z,0.90
2018-03-03T07:13:59.043Z,1.60
2018-03-03T07:16:25.445Z,1.60
2018-03-03T07:18:52.606Z,2.20
2018-03-03T07:21:19.793Z,2.50
2018-03-03T07:23:46.199Z,2.40
2018-03-03T07:26:13.315Z,3.10
2018-03-03T07:28:39.698Z,3.00
2018-03-03T07:31:06.079Z,3.30
2018-03-03T07:33:32.455Z,3.50
2018-03-03T07:35:58.847Z,3.80
2018-03-03T07:38:25.235Z,4.00
2018-03-03T07:40:51.615Z,4.00
2018-03-03T07:43:17.987Z,4.10
2018-03-03T07:45:44.363Z,4.20
2018-03-03T07:48:10.743Z,4.40
2018-03-03T07:50:38.150Z,4.50
2018-03-03T07:53:05.306Z,4.60
2018-03-03T07:55:31.691Z,4.70
2018-03-03T07:57:58.114Z,4.70
2018-03-03T08:00:24.462Z,4.80
2018-03-03T08:02:50.846Z,5.10
2018-03-03T08:05:17.979Z,5.20
2018-03-03T08:07:45.863Z,5.00
2018-03-03T08:10:12.243Z,5.00
2018-03-03T08:12:40.539Z,4.90
2018-03-03T08:15:07.035Z,4.70
2018-03-03T08:17:33.395Z,4.70
2018-03-03T08:19:59.754Z,4.70
2018-03-03T08:22:26.219Z,4.80
2018-03-03T08:24:53.370Z,4.90
2018-03-03T08:27:20.468Z,5.10
2018-03-03T08:29:46.859Z,5.00
2018-03-03T08:32:13.243Z,5.20
2018-03-03T08:34:39.660Z,5.30
2018-03-03T08:37:06.705Z,5.10
2018-03-03T08:39:33.997Z,4.90
2018-03-03T08:42:00.499Z,4.80
2018-03-03T08:44:26.870Z,4.70
2018-03-03T08:46:54.078Z,4.30
2018-03-03T08:49:20.428Z,4.20
2018-03-03T08:51:46.829Z,4.10
2018-03-03T08:54:13.272Z,4.00
2018-03-03T08:56:39.658Z,4.10
2018-03-03T08:59:07.776Z,4.40
2018-03-03T09:01:34.139Z,4.40
2018-03-03T09:04:00.547Z,4.40
2018-03-03T09:06:26.917Z,4.60
2018-03-03T09:08:54.017Z,4.90
2018-03-03T09:11:20.391Z,4.90
2018-03-03T09:13:46.754Z,5.10
2018-03-03T09:16:13.119Z,5.30
2018-03-03T09:18:39.502Z,5.50
2018-03-03T09:21:06.611Z,5.70
2018-03-03T09:23:32.975Z,5.70
2018-03-03T09:26:00.098Z,6.20
2018-03-03T09:28:26.486Z,6.10
2018-03-03T09:30:53.408Z,6.20
2018-03-03T09:33:20.574Z,6.20
2018-03-03T09:35:47.587Z,6.20
2018-03-03T09:38:13.976Z,6.30
2018-03-03T09:40:41.364Z,6.60
2018-03-03T09:43:08.490Z,6.70
2018-03-03T09:45:35.639Z,6.70
2018-03-03T09:48:01.996Z,6.80
2018-03-03T09:50:28.369Z,6.70
2018-03-03T09:52:54.778Z,6.90
2018-03-03T09:55:21.896Z,6.90
2018-03-03T09:57:48.286Z,6.90
2018-03-03T10:00:14.671Z,7.10
2018-03-03T10:02:41.057Z,7.10
2018-03-03T10:05:07.411Z,7.10
2018-03-03T10:07:33.778Z,7.20
2018-03-03T10:10:00.896Z,7.70
2018-03-03T10:12:27.291Z,7.70
2018-03-03T10:14:53.675Z,7.70
2018-03-03T10:17:20.072Z,7.70
2018-03-03T10:19:46.462Z,7.90
2018-03-03T10:22:14.700Z,8.40
2018-03-03T10:24:42.083Z,8.30
2018-03-03T10:27:08.598Z,8.50
2018-03-03T10:29:35.027Z,8.50
2018-03-03T10:32:01.439Z,8.60
2018-03-03T10:34:28.911Z,8.40
2018-03-03T10:36:55.308Z,8.30
2018-03-03T10:39:21.690Z,8.30
2018-03-03T10:41:48.055Z,8.20
2018-03-03T10:44:16.114Z,8.20
2018-03-03T10:46:42.471Z,8.20
2018-03-03T10:49:09.798Z,8.20
2018-03-03T10:51:36.196Z,8.10
2018-03-03T10:54:02.610Z,8.00
2018-03-03T10:56:28.991Z,8.10
2018-03-03T10:58:56.090Z,8.10
2018-03-03T11:01:22.475Z,8.10
2018-03-03T11:03:48.854Z,8.00
2018-03-03T11:06:15.275Z,7.90
2018-03-03T11:08:41.675Z,8.10
2018-03-03T11:11:08.794Z,8.10
2018-03-03T11:13:35.167Z,8.00
2018-03-03T11:16:02.277Z,8.00
2018-03-03T11:18:29.646Z,7.90
2018-03-03T11:20:57.031Z,7.80
2018-03-03T11:23:24.166Z,7.70
2018-03-03T11:25:51.354Z,7.80
2018-03-03T11:28:17.711Z,7.70
2018-03-03T11:30:44.100Z,7.80
2018-03-03T11:33:10.461Z,7.70
2018-03-03T11:35:37.746Z,7.80
2018-03-03T11:38:04.127Z,7.80
2018-03-03T11:40:33.136Z,7.90
2018-03-03T11:42:57.663Z,7.80
2018-03-03T11:45:24.060Z,7.80
2018-03-03T11:47:50.427Z,8.00
2018-03-03T11:50:16.814Z,8.10
2018-03-03T11:52:43.175Z,8.20
2018-03-03T11:55:09.550Z,8.10
2018-03-03T11:57:36.674Z,7.90
2018-03-03T12:00:03.069Z,7.90
2018-03-03T12:02:29.425Z,7.90
2018-03-03T12:04:55.822Z,7.90
2018-03-03T12:07:22.259Z,7.80
2018-03-03T12:09:48.689Z,7.70
2018-03-03T12:12:15.050Z,7.70
2018-03-03T12:14:41.419Z,7.90
2018-03-03T12:17:08.630Z,8.70
2018-03-03T12:19:35.002Z,8.70
2018-03-03T12:22:02.115Z,9.20
2018-03-03T12:24:28.616Z,9.20
2018-03-03T12:26:54.998Z,9.00
2018-03-03T12:29:21.395Z,9.00
2018-03-03T12:31:47.822Z,9.00
2018-03-03T12:34:14.243Z,8.80
2018-03-03T12:36:40.614Z,8.80
2018-03-03T12:39:07.024Z,8.80
2018-03-03T12:41:33.489Z,9.00
2018-03-03T12:43:59.863Z,9.30
2018-03-03T12:46:26.224Z,9.50
2018-03-03T12:48:52.614Z,9.50
2018-03-03T12:51:20.299Z,9.40
2018-03-03T12:53:46.686Z,9.40
2018-03-03T12:56:13.059Z,9.40
2018-03-03T12:58:39.529Z,9.30
2018-03-03T13:01:05.886Z,9.10
2018-03-03T13:03:32.257Z,9.10
2018-03-03T13:06:00.367Z,9.30
2018-03-03T13:08:26.816Z,9.10
2018-03-03T13:10:53.238Z,9.10
2018-03-03T13:13:19.646Z,9.10
2018-03-03T13:15:46.035Z,9.40
2018-03-03T13:18:13.156Z,9.50
2018-03-03T13:20:39.544Z,9.50
2018-03-03T13:23:05.920Z,9.50
2018-03-03T13:25:32.307Z,9.50
2018-03-03T13:27:58.699Z,9.50
2018-03-03T13:30:25.749Z,9.50
2018-03-03T13:32:52.140Z,9.40
2018-03-03T13:35:18.536Z,9.60
2018-03-03T13:37:46.847Z,9.30
2018-03-03T13:40:13.235Z,9.30
2018-03-03T13:42:40.359Z,9.10
2018-03-03T13:45:07.774Z,9.10
2018-03-03T13:47:34.952Z,9.00
2018-03-03T13:50:02.378Z,8.70
2018-03-03T13:52:28.775Z,8.60
2018-03-03T13:54:55.790Z,8.50
2018-03-03T13:57:22.179Z,8.40
2018-03-03T13:59:49.379Z,7.80
2018-03-03T14:02:15.779Z,7.70
2018-03-03T14:04:43.186Z,7.50
2018-03-03T14:07:09.543Z,7.50
2018-03-03T14:09:36.646Z,7.40
2018-03-03T14:12:03.023Z,7.30
2018-03-03T14:14:30.141Z,7.30
2018-03-03T14:16:56.529Z,7.30
2018-03-03T14:19:22.890Z,7.30
2018-03-03T14:21:50.304Z,7.10
2018-03-03T14:24:17.415Z,7.20
2018-03-03T14:26:43.867Z,7.10
2018-03-03T14:29:10.248Z,7.00
2018-03-03T14:31:36.619Z,7.00
2018-03-03T14:34:03.004Z,7.00
2018-03-03T14:36:30.251Z,6.90
2018-03-03T14:38:56.646Z,6.90
2018-03-03T14:41:23.031Z,7.10
2018-03-03T14:43:49.432Z,7.00
2018-03-03T14:46:15.815Z,6.80
2018-03-03T14:48:42.250Z,7.00
2018-03-03T14:51:08.638Z,6.90
2018-03-03T14:53:35.022Z,6.60
2018-03-03T14:56:01.378Z,6.40
2018-03-03T14:58:28.483Z,6.50
2018-03-03T15:00:54.943Z,6.50
2018-03-03T15:03:23.620Z,6.60
2018-03-03T15:05:50.116Z,6.50
2018-03-03T15:08:16.518Z,6.60
2018-03-03T15:10:43.040Z,6.50
2018-03-03T15:13:10.160Z,6.30
2018-03-03T15:15:36.567Z,6.30
2018-03-03T15:18:02.948Z,6.20
2018-03-03T15:20:30.064Z,6.10
2018-03-03T15:22:56.431Z,6.10
2018-03-03T15:25:23.567Z,5.90
2018-03-03T15:27:51.496Z,6.00
2018-03-03T15:30:17.865Z,5.90
2018-03-03T15:32:44.253Z,6.00
2018-03-03T15:35:10.623Z,6.20
2018-03-03T15:37:37.003Z,6.10
2018-03-03T15:40:03.400Z,5.80
2018-03-03T15:42:30.605Z,5.50
2018-03-03T15:44:57.011Z,5.50
2018-03-03T15:47:24.530Z,5.40
2018-03-03T15:49:51.007Z,5.20
2018-03-03T15:52:18.082Z,5.00
2018-03-03T15:54:48.506Z,4.90
2018-03-03T15:57:14.862Z,5.00
2018-03-03T15:59:41.244Z,5.00
2018-03-03T16:02:07.903Z,4.90
2018-03-03T16:04:34.263Z,4.80
2018-03-03T16:07:00.671Z,4.80
2018-03-03T16:09:27.051Z,4.80
2018-03-03T16:11:54.155Z,4.60
2018-03-03T16:14:20.519Z,4.60
2018-03-03T16:16:47.926Z,4.50
2018-03-03T16:19:14.376Z,4.20
2018-03-03T16:21:40.764Z,4.10
2018-03-03T16:24:07.871Z,4.00
2018-03-03T16:26:34.239Z,4.00
2018-03-03T16:29:01.335Z,3.70
2018-03-03T16:31:27.703Z,3.70
2018-03-03T16:33:54.831Z,3.30
2018-03-03T16:36:21.213Z,3.30
2018-03-03T16:38:47.618Z,3.40
2018-03-03T16:41:13.991Z,3.30
2018-03-03T16:43:40.414Z,3.30
2018-03-03T16:46:06.800Z,3.20
2018-03-03T16:48:33.182Z,3.00
2018-03-03T16:50:59.563Z,3.10
2018-03-03T16:53:25.947Z,3.20
2018-03-03T16:55:52.315Z,3.10
2018-03-03T16:58:18.819Z,3.20
2018-03-03T17:00:45.181Z,3.20
2018-03-03T17:03:12.045Z,3.10
2018-03-03T17:05:38.432Z,2.90
2018-03-03T17:08:05.405Z,2.80
2018-03-03T17:10:31.908Z,2.70
2018-03-03T17:12:58.259Z,2.50
2018-03-03T17:15:24.792Z,2.50
2018-03-03T17:17:51.225Z,2.50
2018-03-03T17:20:17.658Z,2.60
2018-03-03T17:22:44.089Z,2.70
2018-03-03T17:25:10.734Z,2.80
2018-03-03T17:27:37.131Z,2.80
2018-03-03T17:30:04.558Z,2.80
2018-03-03T17:32:30.935Z,2.80
2018-03-03T17:34:57.307Z,2.90
2018-03-03T17:37:23.681Z,2.80
2018-03-03T17:39:50.063Z,2.80
2018-03-03T17:42:16.440Z,2.80
2018-03-03T17:44:43.555Z,2.80
2018-03-03T17:47:09.947Z,2.80
2018-03-03T17:49:36.890Z,2.90
2018-03-03T17:52:03.271Z,2.90
2018-03-03T17:54:29.747Z,2.90
2018-03-03T17:56:56.127Z,2.90
2018-03-03T17:59:22.615Z,2.80
2018-03-03T18:01:49.074Z,2.70
2018-03-03T18:04:15.448Z,2.60
2018-03-03T18:06:43.652Z,2.60
2018-03-03T18:09:10.015Z,2.60
2018-03-03T18:11:36.391Z,2.50
2018-03-03T18:14:03.555Z,2.50
2018-03-03T18:16:30.676Z,2.50
2018-03-03T18:19:00.031Z,2.50
2018-03-03T18:21:26.790Z,2.50
2018-03-03T18:23:53.168Z,2.50
2018-03-03T18:26:19.561Z,2.50
2018-03-03T18:28:45.912Z,2.60
2018-03-03T18:31:12.330Z,2.60
2018-03-03T18:33:39.489Z,2.50
2018-03-03T18:36:06.633Z,2.50
2018-03-03T18:38:33.503Z,2.50
2018-03-03T18:41:00.674Z,2.50
2018-03-03T18:43:27.056Z,2.50
2018-03-03T18:45:53.436Z,2.50
2018-03-03T18:48:19.879Z,2.60
2018-03-03T18:50:46.259Z,2.50
2018-03-03T18:53:13.790Z,2.30
2018-03-03T18:55:40.228Z,2.30
2018-03-03T18:58:06.615Z,2.30
2018-03-03T19:00:33.048Z,2.30
2018-03-03T19:03:01.629Z,2.50
2018-03-03T19:05:28.111Z,2.50
2018-03-03T19:07:54.496Z,2.50
2018-03-03T19:10:21.618Z,2.50
2018-03-03T19:12:48.739Z,2.40
2018-03-03T19:15:15.123Z,2.40
2018-03-03T19:17:42.243Z,2.50
2018-03-03T19:20:08.611Z,2.50
2018-03-03T19:22:35.580Z,2.50
2018-03-03T19:25:01.944Z,2.50
2018-03-03T19:27:28.364Z,2.50
2018-03-03T19:29:56.284Z,2.60
2018-03-03T19:32:23.384Z,2.60
2018-03-03T19:34:49.823Z,2.50
2018-03-03T19:37:16.243Z,2.60
2018-03-03T19:39:42.605Z,2.60
2018-03-03T19:42:09.438Z,2.60
2018-03-03T19:44:35.933Z,2.60
2018-03-03T19:47:02.295Z,2.70
2018-03-03T19:49:28.678Z,2.50
2018-03-03T19:51:55.869Z,2.50
2018-03-03T19:54:23.200Z,2.50
2018-03-03T19:56:49.566Z,2.60
2018-03-03T19:59:17.013Z,2.70
2018-03-03T20:01:43.384Z,2.70
2018-03-03T20:04:10.488Z,2.60
2018-03-03T20:06:37.859Z,2.60
2018-03-03T20:09:04.255Z,2.60
2018-03-03T20:11:30.655Z,2.60
2018-03-03T20:13:57.787Z,2.60
2018-03-03T20:16:24.906Z,2.60
2018-03-03T20:18:51.268Z,2.60
2018-03-03T20:21:17.855Z,2.60
2018-03-03T20:23:44.208Z,2.50
2018-03-03T20:26:10.582Z,2.60
2018-03-03T20:28:36.960Z,2.60
2018-03-03T20:31:03.343Z,2.50
2018-03-03T20:33:29.756Z,2.50
2018-03-03T20:35:56.122Z,2.60
2018-03-03T20:38:23.270Z,2.70
2018-03-03T20:40:50.370Z,2.60
2018-03-03T20:43:16.815Z,2.50
2018-03-03T20:45:43.219Z,2.60
2018-03-03T20:48:10.646Z,2.50
2018-03-03T20:50:37.738Z,2.70
2018-03-03T20:53:04.173Z,2.70
2018-03-03T20:55:30.908Z,2.70
2018-03-03T20:57:57.315Z,2.60
2018-03-03T21:00:23.667Z,2.50
2018-03-03T21:02:50.058Z,2.60
2018-03-03T21:05:17.160Z,2.60
2018-03-03T21:07:43.519Z,2.60
2018-03-03T21:10:11.948Z,2.60
2018-03-03T21:12:40.175Z,2.50
2018-03-03T21:15:06.653Z,2.60
2018-03-03T21:17:33.039Z,2.60
2018-03-03T21:20:01.947Z,2.60
2018-03-03T21:22:29.063Z,2.70
2018-03-03T21:24:55.480Z,2.70
2018-03-03T21:27:22.755Z,2.70
2018-03-03T21:29:49.145Z,2.80
2018-03-03T21:32:15.504Z,2.70
2018-03-03T21:34:41.886Z,2.70
2018-03-03T21:37:09.023Z,2.60
2018-03-03T21:39:36.214Z,2.60
2018-03-03T21:42:02.744Z,2.60
2018-03-03T21:44:29.719Z,2.70
2018-03-03T21:46:56.906Z,2.70
2018-03-03T21:49:24.027Z,2.70
2018-03-03T21:51:50.461Z,2.70
2018-03-03T21:54:16.885Z,2.60
2018-03-03T21:56:43.318Z,2.60
2018-03-03T21:59:09.745Z,2.60
2018-03-03T22:01:36.188Z,2.60
2018-03-03T22:04:03.030Z,2.60
2018-03-03T22:06:29.448Z,2.50
2018-03-03T22:08:57.772Z,2.40
2018-03-03T22:11:24.159Z,2.50
2018-03-03T22:13:50.593Z,2.50
2018-03-03T22:16:18.016Z,2.40
2018-03-03T22:18:45.409Z,2.30
2018-03-03T22:21:11.785Z,2.30
2018-03-03T22:23:38.164Z,2.30
2018-03-03T22:26:04.595Z,2.30
2018-03-03T22:28:30.983Z,2.30
2018-03-03T22:30:57.367Z,2.40
2018-03-03T22:33:23.807Z,2.50
2018-03-03T22:35:50.188Z,2.40
2018-03-03T22:38:17.306Z,2.40
2018-03-03T22:40:43.686Z,2.30
2018-03-03T22:43:11.526Z,2.40
2018-03-03T22:45:37.905Z,2.40
2018-03-03T22:48:05.004Z,2.40
2018-03-03T22:50:31.384Z,2.40
2018-03-03T22:52:58.481Z,2.30
2018-03-03T22:55:24.915Z,2.30
2018-03-03T22:57:51.310Z,2.20
2018-03-03T23:00:17.752Z,2.30
2018-03-03T23:02:44.132Z,2.30
2018-03-03T23:05:10.504Z,2.20
2018-03-03T23:07:38.279Z,2.30
2018-03-03T23:10:04.679Z,2.20
2018-03-03T23:12:31.872Z,2.30
2018-03-03T23:14:58.231Z,2.30
2018-03-03T23:17:27.731Z,2.30
2018-03-03T23:19:54.123Z,2.40
2018-03-03T23:22:21.349Z,2.20
2018-03-03T23:24:47.754Z,2.20
2018-03-03T23:27:15.087Z,2.20
2018-03-03T23:29:41.487Z,2.30
2018-03-03T23:32:08.922Z,2.20
2018-03-03T23:34:38.179Z,2.20
2018-03-03T23:37:04.632Z,2.30
2018-03-03T23:39:31.755Z,2.40
2018-03-03T23:41:58.871Z,2.30
2018-03-03T23:44:26.036Z,2.30
2018-03-03T23:46:52.506Z,2.30
2018-03-03T23:49:20.338Z,2.30
2018-03-03T23:51:46.728Z,2.40
2018-03-03T23:54:13.116Z,2.30
2018-03-03T23:56:40.284Z,2.30
2018-03-03T23:59:06.672Z,2.30
